createdAt,value
2019-06-26T00:00:37.879Z,6.20
2019-06-26T00:01:37.813Z,5.90
2019-06-26T00:02:37.780Z,6.20
2019-06-26T00:03:37.761Z,6.10
2019-06-26T00:04:37.720Z,5.80
2019-06-26T00:05:37.690Z,6.50
2019-06-26T00:06:37.665Z,5.70
2019-06-26T00:07:37.732Z,6.20
2019-06-26T00:08:37.611Z,5.70
2019-06-26T00:09:37.580Z,6.00
2019-06-26T00:10:37.561Z,5.90
2019-06-26T00:11:37.521Z,5.80
2019-06-26T00:12:37.513Z,6.00
2019-06-26T00:13:37.463Z,6.10
2019-06-26T00:14:38.948Z,5.60
2019-06-26T00:15:37.409Z,5.70
2019-06-26T00:16:37.377Z,5.90
2019-06-26T00:17:37.354Z,5.90
2019-06-26T00:18:37.322Z,6.10
2019-06-26T00:19:37.288Z,5.90
2019-06-26T00:20:37.260Z,6.00
2019-06-26T00:21:37.234Z,6.20
2019-06-26T00:22:37.212Z,6.40
2019-06-26T00:23:37.183Z,6.30
2019-06-26T00:24:37.150Z,6.20
2019-06-26T00:25:37.130Z,6.20
2019-06-26T00:26:37.089Z,7.00
2019-06-26T00:27:37.068Z,6.60
2019-06-26T00:28:37.036Z,6.40
2019-06-26T00:29:37.005Z,6.50
2019-06-26T00:30:36.982Z,6.50
2019-06-26T00:31:36.951Z,6.70
2019-06-26T00:32:36.918Z,7.10
2019-06-26T00:33:36.893Z,6.60
2019-06-26T00:34:36.863Z,7.20
2019-06-26T00:35:36.842Z,7.20
2019-06-26T00:36:36.808Z,7.10
2019-06-26T00:37:36.882Z,6.50
2019-06-26T00:38:39.962Z,6.80
2019-06-26T00:39:36.718Z,7.30
2019-06-26T00:40:36.690Z,7.40
2019-06-26T00:41:36.670Z,7.30
2019-06-26T00:42:36.640Z,8.10
2019-06-26T00:43:42.213Z,8.00
2019-06-26T00:44:36.588Z,9.10
2019-06-26T00:45:36.572Z,8.70
2019-06-26T00:46:36.595Z,8.20
2019-06-26T00:47:36.543Z,7.90
2019-06-26T00:48:36.458Z,8.50
2019-06-26T00:49:36.437Z,8.50
2019-06-26T00:50:36.404Z,7.90
2019-06-26T00:51:36.409Z,8.50
2019-06-26T00:52:36.346Z,8.80
2019-06-26T00:53:36.317Z,8.30
2019-06-26T00:54:36.290Z,8.50
2019-06-26T00:55:36.262Z,8.20
2019-06-26T00:56:36.230Z,8.60
2019-06-26T00:57:36.212Z,9.20
2019-06-26T00:58:36.172Z,9.60
2019-06-26T00:59:36.164Z,9.10
2019-06-26T01:00:36.116Z,8.60
2019-06-26T01:01:36.084Z,8.20
2019-06-26T01:02:36.098Z,8.80
2019-06-26T01:03:36.027Z,9.20
2019-06-26T01:04:35.998Z,9.00
2019-06-26T01:05:35.973Z,9.00
2019-06-26T01:06:35.972Z,8.80
2019-06-26T01:07:35.941Z,9.30
2019-06-26T01:08:35.893Z,9.10
2019-06-26T01:09:35.851Z,9.30
2019-06-26T01:10:35.829Z,9.40
2019-06-26T01:11:35.801Z,9.50
2019-06-26T01:12:35.769Z,9.20
2019-06-26T01:13:35.737Z,8.80
2019-06-26T01:14:35.715Z,9.20
2019-06-26T01:15:35.677Z,8.40
2019-06-26T01:16:35.650Z,8.80
2019-06-26T01:17:35.633Z,9.00
2019-06-26T01:18:35.621Z,9.30
2019-06-26T01:19:35.573Z,9.00
2019-06-26T01:20:35.536Z,8.40
2019-06-26T01:21:35.507Z,8.70
2019-06-26T01:22:35.491Z,9.20
2019-06-26T01:23:35.445Z,9.00
2019-06-26T01:24:35.422Z,9.20
2019-06-26T01:25:35.390Z,8.70
2019-06-26T01:26:35.364Z,9.80
2019-06-26T01:27:35.333Z,10.20
2019-06-26T01:28:35.304Z,9.90
2019-06-26T01:29:35.275Z,9.60
2019-06-26T01:30:35.242Z,10.00
2019-06-26T01:31:35.219Z,9.00
2019-06-26T01:32:35.188Z,9.70
2019-06-26T01:33:35.160Z,9.60
2019-06-26T01:34:35.127Z,9.80
2019-06-26T01:35:35.100Z,10.70
2019-06-26T01:36:35.068Z,10.30
2019-06-26T01:37:35.044Z,10.10
2019-06-26T01:38:35.015Z,10.40
2019-06-26T01:39:34.996Z,9.60
2019-06-26T01:40:34.967Z,10.10
2019-06-26T01:41:34.923Z,10.40
2019-06-26T01:42:34.893Z,9.90
2019-06-26T01:43:34.872Z,10.00
2019-06-26T01:44:34.838Z,9.40
2019-06-26T01:45:34.809Z,9.60
2019-06-26T01:46:34.792Z,9.70
2019-06-26T01:47:34.755Z,10.60
2019-06-26T01:48:34.727Z,11.30
2019-06-26T01:49:34.698Z,11.70
2019-06-26T01:50:34.695Z,11.80
2019-06-26T01:51:34.637Z,11.80
2019-06-26T01:52:34.607Z,11.60
2019-06-26T01:53:34.577Z,11.50
2019-06-26T01:54:34.568Z,11.00
2019-06-26T01:55:34.517Z,12.30
2019-06-26T01:56:34.498Z,12.80
2019-06-26T01:57:34.468Z,12.20
2019-06-26T01:58:34.440Z,12.50
2019-06-26T01:59:34.403Z,11.90
2019-06-26T02:00:34.375Z,12.50
2019-06-26T02:01:34.343Z,12.30
2019-06-26T02:02:34.331Z,13.40
2019-06-26T02:03:34.302Z,12.80
2019-06-26T02:04:34.253Z,12.50
2019-06-26T02:05:34.226Z,11.60
2019-06-26T02:06:34.196Z,12.40
2019-06-26T02:07:34.168Z,12.90
2019-06-26T02:08:34.149Z,13.00
2019-06-26T02:09:34.106Z,13.00
2019-06-26T02:10:34.078Z,13.40
2019-06-26T02:11:34.058Z,12.30
2019-06-26T02:12:34.017Z,13.20
2019-06-26T02:13:33.988Z,12.10
2019-06-26T02:14:33.958Z,12.30
2019-06-26T02:15:33.928Z,12.40
2019-06-26T02:16:33.898Z,12.50
2019-06-26T02:17:33.870Z,12.70
2019-06-26T02:18:33.844Z,11.80
2019-06-26T02:19:33.812Z,11.90
2019-06-26T02:20:33.779Z,13.30
2019-06-26T02:21:33.751Z,13.50
2019-06-26T02:22:33.821Z,12.90
2019-06-26T02:23:33.695Z,14.10
2019-06-26T02:24:33.663Z,13.40
2019-06-26T02:25:33.634Z,13.50
2019-06-26T02:26:33.601Z,13.70
2019-06-26T02:27:33.579Z,13.70
2019-06-26T02:28:33.546Z,14.40
2019-06-26T02:29:33.516Z,13.30
2019-06-26T02:30:33.490Z,13.00
2019-06-26T02:31:33.472Z,14.00
2019-06-26T02:32:33.426Z,14.00
2019-06-26T02:33:33.399Z,13.40
2019-06-26T02:34:33.368Z,13.20
2019-06-26T02:35:33.345Z,13.50
2019-06-26T02:36:33.327Z,12.80
2019-06-26T02:37:33.285Z,13.30
2019-06-26T02:38:33.247Z,13.50
2019-06-26T02:39:33.215Z,14.20
2019-06-26T02:40:33.187Z,13.70
2019-06-26T02:41:33.163Z,13.00
2019-06-26T02:42:33.135Z,12.50
2019-06-26T02:43:33.111Z,12.70
2019-06-26T02:44:51.370Z,12.10
2019-06-26T02:45:33.043Z,13.20
2019-06-26T02:46:33.010Z,13.00
2019-06-26T02:47:32.978Z,13.10
2019-06-26T02:48:32.959Z,12.70
2019-06-26T02:49:32.922Z,12.50
2019-06-26T02:50:32.900Z,12.30
2019-06-26T02:51:32.860Z,12.50
2019-06-26T02:52:32.832Z,12.40
2019-06-26T02:53:32.803Z,12.60
2019-06-26T02:54:32.779Z,12.30
2019-06-26T02:55:32.750Z,12.50
2019-06-26T02:56:32.718Z,12.30
2019-06-26T02:57:32.682Z,11.70
2019-06-26T02:58:32.652Z,11.30
2019-06-26T02:59:32.624Z,10.90
2019-06-26T03:00:32.597Z,11.10
2019-06-26T03:01:32.565Z,11.40
2019-06-26T03:02:32.539Z,11.80
2019-06-26T03:03:32.511Z,11.60
2019-06-26T03:04:32.476Z,12.00
2019-06-26T03:05:32.445Z,12.00
2019-06-26T03:06:32.415Z,12.30
2019-06-26T03:07:32.397Z,13.30
2019-06-26T03:08:32.362Z,12.70
2019-06-26T03:09:32.345Z,12.80
2019-06-26T03:10:32.293Z,12.90
2019-06-26T03:11:32.266Z,13.30
2019-06-26T03:12:32.235Z,12.40
2019-06-26T03:13:32.207Z,13.30
2019-06-26T03:14:32.182Z,13.40
2019-06-26T03:15:32.150Z,13.00
2019-06-26T03:16:32.118Z,12.90
2019-06-26T03:17:32.086Z,13.80
2019-06-26T03:18:32.054Z,14.00
2019-06-26T03:19:32.029Z,13.80
2019-06-26T03:20:32.011Z,14.20
2019-06-26T03:36:24.498Z,13.60
2019-06-26T03:37:24.145Z,15.50
2019-06-26T03:38:24.127Z,15.10
2019-06-26T03:39:24.040Z,15.50
2019-06-26T03:40:24.008Z,14.80
2019-06-26T03:41:23.990Z,15.20
2019-06-26T03:42:23.949Z,15.10
2019-06-26T03:43:23.903Z,15.20
2019-06-26T03:44:23.868Z,14.30
2019-06-26T03:45:26.124Z,14.80
2019-06-26T03:46:23.811Z,14.80
2019-06-26T03:47:23.778Z,14.90
2019-06-26T03:48:23.749Z,14.60
2019-06-26T03:49:23.719Z,15.20
2019-06-26T03:50:23.683Z,14.50
2019-06-26T03:51:23.650Z,14.70
2019-06-26T03:52:23.615Z,14.90
2019-06-26T03:53:23.589Z,14.40
2019-06-26T03:54:23.556Z,14.90
2019-06-26T03:55:23.529Z,14.70
2019-06-26T03:56:23.493Z,14.40
2019-06-26T03:57:23.467Z,14.00
2019-06-26T03:58:23.438Z,13.70
2019-06-26T03:59:23.432Z,14.30
2019-06-26T04:00:23.388Z,14.20
2019-06-26T04:01:23.355Z,13.90
2019-06-26T04:02:23.328Z,13.60
2019-06-26T04:03:23.427Z,13.80
2019-06-26T04:04:23.245Z,13.50
2019-06-26T04:05:23.220Z,14.40
2019-06-26T04:06:23.185Z,13.70
2019-06-26T04:07:23.153Z,13.80
2019-06-26T04:08:23.122Z,13.30
2019-06-26T04:09:23.092Z,12.40
2019-06-26T04:10:23.066Z,12.40
2019-06-26T04:11:23.028Z,11.70
2019-06-26T04:12:23.007Z,12.20
2019-06-26T04:13:22.968Z,12.00
2019-06-26T04:14:22.939Z,11.50
2019-06-26T04:15:22.909Z,12.00
2019-06-26T04:16:22.873Z,12.30
2019-06-26T04:17:22.847Z,12.40
2019-06-26T04:18:22.818Z,12.30
2019-06-26T04:19:22.813Z,12.50
2019-06-26T04:20:22.773Z,12.70
2019-06-26T04:21:22.733Z,12.50
2019-06-26T04:22:22.694Z,12.10
2019-06-26T04:23:22.990Z,12.20
2019-06-26T04:24:22.631Z,12.30
2019-06-26T04:25:22.602Z,12.30
2019-06-26T04:26:22.574Z,12.00
2019-06-26T04:27:22.634Z,12.80
2019-06-26T04:28:22.509Z,12.30
2019-06-26T04:29:22.485Z,12.60
2019-06-26T04:30:22.455Z,12.40
2019-06-26T04:31:22.428Z,12.40
2019-06-26T04:32:22.395Z,12.30
2019-06-26T04:33:22.365Z,12.10
2019-06-26T04:34:22.333Z,12.20
2019-06-26T04:35:22.300Z,12.60
2019-06-26T04:36:22.273Z,12.60
2019-06-26T04:37:22.243Z,11.60
2019-06-26T04:38:22.227Z,12.20
2019-06-26T04:39:22.188Z,11.70
2019-06-26T04:40:22.156Z,12.10
2019-06-26T04:41:22.133Z,12.30
2019-06-26T04:42:22.096Z,12.00
2019-06-26T04:43:22.065Z,12.30
2019-06-26T04:44:22.038Z,12.40
2019-06-26T04:45:22.009Z,12.10
2019-06-26T04:46:21.973Z,12.30
2019-06-26T04:47:21.942Z,12.20
2019-06-26T04:48:21.912Z,11.80
2019-06-26T04:49:21.885Z,11.80
2019-06-26T04:50:21.909Z,12.10
2019-06-26T04:51:21.840Z,11.60
2019-06-26T04:52:21.802Z,12.10
2019-06-26T04:53:21.774Z,12.00
2019-06-26T04:54:21.737Z,11.80
2019-06-26T04:55:21.708Z,12.10
2019-06-26T04:56:21.678Z,11.70
2019-06-26T04:57:21.647Z,11.10
2019-06-26T04:58:21.621Z,11.00
2019-06-26T04:59:21.595Z,11.40
2019-06-26T05:00:22.012Z,11.00
2019-06-26T05:01:21.530Z,11.60
2019-06-26T05:02:21.502Z,10.50
2019-06-26T05:03:21.474Z,11.30
2019-06-26T05:04:21.445Z,11.40
2019-06-26T05:05:21.413Z,10.80
2019-06-26T05:06:21.382Z,11.00
2019-06-26T05:07:21.349Z,11.00
2019-06-26T05:08:21.323Z,10.40
2019-06-26T05:09:21.379Z,11.00
2019-06-26T05:10:21.265Z,10.30
2019-06-26T05:11:21.237Z,10.70
2019-06-26T05:12:21.212Z,10.90
2019-06-26T05:13:21.177Z,10.80
2019-06-26T05:14:21.150Z,11.10
2019-06-26T05:15:21.119Z,10.90
2019-06-26T05:16:21.097Z,11.10
2019-06-26T05:17:21.060Z,12.00
2019-06-26T05:18:21.033Z,11.10
2019-06-26T05:19:21.000Z,12.20
2019-06-26T05:20:20.972Z,12.70
2019-06-26T05:21:20.942Z,14.00
2019-06-26T05:22:20.912Z,13.50
2019-06-26T05:23:20.884Z,12.30
2019-06-26T05:24:20.857Z,11.80
2019-06-26T05:25:20.824Z,11.60
2019-06-26T05:26:20.796Z,12.70
2019-06-26T05:27:20.775Z,12.40
2019-06-26T05:28:20.738Z,12.30
2019-06-26T05:29:20.711Z,13.10
2019-06-26T05:30:20.681Z,12.70
2019-06-26T05:31:20.651Z,13.00
2019-06-26T05:32:20.626Z,12.50
2019-06-26T05:33:20.601Z,12.40
2019-06-26T05:34:20.568Z,11.90
2019-06-26T05:35:20.541Z,12.70
2019-06-26T05:36:20.510Z,12.80
2019-06-26T05:37:20.499Z,13.20
2019-06-26T05:38:20.452Z,13.20
2019-06-26T05:39:20.430Z,13.40
2019-06-26T05:40:20.407Z,13.00
2019-06-26T05:41:20.366Z,13.60
2019-06-26T05:42:20.341Z,13.60
2019-06-26T05:43:20.311Z,14.70
2019-06-26T05:44:20.282Z,14.20
2019-06-26T05:45:20.251Z,14.50
2019-06-26T05:46:30.486Z,17.70
2019-06-26T05:47:22.032Z,17.70
2019-06-26T05:48:20.166Z,17.50
2019-06-26T05:49:20.143Z,16.30
2019-06-26T05:50:20.115Z,15.50
2019-06-26T05:51:20.082Z,14.90
2019-06-26T05:52:20.055Z,16.40
2019-06-26T05:53:20.027Z,16.00
2019-06-26T05:54:20.018Z,17.70
2019-06-26T05:55:19.969Z,18.40
2019-06-26T05:56:19.940Z,18.10
2019-06-26T05:57:19.918Z,16.70
2019-06-26T05:58:19.892Z,16.40
2019-06-26T05:59:19.880Z,18.10
2019-06-26T06:00:19.827Z,18.00
2019-06-26T06:01:19.798Z,18.20
2019-06-26T06:02:19.772Z,17.60
2019-06-26T06:03:19.743Z,16.80
2019-06-26T06:04:19.717Z,16.00
2019-06-26T06:05:19.736Z,16.70
2019-06-26T06:06:19.657Z,15.90
2019-06-26T06:07:19.630Z,16.90
2019-06-26T06:08:19.601Z,16.10
2019-06-26T06:09:19.572Z,17.50
2019-06-26T06:10:19.546Z,16.20
2019-06-26T06:11:19.518Z,16.40
2019-06-26T06:12:19.493Z,15.80
2019-06-26T06:13:19.465Z,16.20
2019-06-26T06:14:19.432Z,15.70
2019-06-26T06:15:19.410Z,16.90
2019-06-26T06:16:19.375Z,17.50
2019-06-26T06:17:19.354Z,16.90
2019-06-26T06:18:19.325Z,17.50
2019-06-26T06:19:19.294Z,16.90
2019-06-26T06:20:19.265Z,17.80
2019-06-26T06:21:19.237Z,17.70
2019-06-26T06:22:19.246Z,17.10
2019-06-26T06:23:19.210Z,18.00
2019-06-26T06:24:19.207Z,18.30
2019-06-26T06:25:19.140Z,17.20
2019-06-26T06:26:19.098Z,17.50
2019-06-26T06:27:19.071Z,17.80
2019-06-26T06:28:19.054Z,18.10
2019-06-26T06:29:19.021Z,17.60
2019-06-26T06:30:18.987Z,17.20
2019-06-26T06:31:18.993Z,18.90
2019-06-26T06:32:18.933Z,17.40
2019-06-26T06:33:18.904Z,16.80
2019-06-26T06:34:18.877Z,16.60
2019-06-26T06:35:18.850Z,17.40
2019-06-26T06:36:18.820Z,17.00
2019-06-26T06:37:18.798Z,16.90
2019-06-26T06:38:18.768Z,18.00
2019-06-26T06:39:18.740Z,18.00
2019-06-26T06:40:18.710Z,18.50
2019-06-26T06:41:18.687Z,17.30
2019-06-26T06:42:18.655Z,17.60
2019-06-26T06:43:18.629Z,16.60
2019-06-26T06:44:18.600Z,17.80
2019-06-26T06:45:18.573Z,18.60
2019-06-26T06:46:18.554Z,17.40
2019-06-26T06:47:18.525Z,17.80
2019-06-26T06:48:18.490Z,17.40
2019-06-26T06:49:18.464Z,17.30
2019-06-26T06:50:18.439Z,17.70
2019-06-26T06:51:18.419Z,17.50
2019-06-26T06:52:18.381Z,16.90
2019-06-26T06:53:18.354Z,16.90
2019-06-26T06:54:18.355Z,16.30
2019-06-26T06:55:18.300Z,16.80
2019-06-26T06:56:18.273Z,16.20
2019-06-26T06:57:18.246Z,16.60
2019-06-26T06:58:18.220Z,17.10
2019-06-26T06:59:18.192Z,16.90
2019-06-26T07:00:18.166Z,16.80
2019-06-26T07:01:26.797Z,16.40
2019-06-26T07:03:22.819Z,18.20
2019-06-26T07:04:22.767Z,17.80
2019-06-26T07:05:22.740Z,17.60
2019-06-26T07:06:22.713Z,16.40
2019-06-26T07:07:22.687Z,17.10
2019-06-26T07:08:22.663Z,17.50
2019-06-26T07:09:22.633Z,16.90
2019-06-26T07:10:22.605Z,17.20
2019-06-26T07:11:22.584Z,17.00
2019-06-26T07:12:22.553Z,16.00
2019-06-26T07:13:22.526Z,16.40
2019-06-26T07:14:22.496Z,17.30
2019-06-26T07:15:22.473Z,17.70
2019-06-26T07:16:22.442Z,17.50
2019-06-26T07:17:22.414Z,16.70
2019-06-26T07:18:22.387Z,17.90
2019-06-26T07:19:22.367Z,17.40
2019-06-26T07:20:22.353Z,17.30
2019-06-26T07:21:22.308Z,18.00
2019-06-26T07:22:22.295Z,18.00
2019-06-26T07:23:22.259Z,18.40
2019-06-26T07:24:22.229Z,17.30
2019-06-26T07:25:22.199Z,18.30
2019-06-26T07:26:22.173Z,17.00
2019-06-26T07:27:22.145Z,18.10
2019-06-26T07:28:22.239Z,19.20
2019-06-26T07:29:22.137Z,18.40
2019-06-26T07:30:22.108Z,18.20
2019-06-26T07:31:22.039Z,17.30
2019-06-26T07:32:22.010Z,17.90
2019-06-26T07:33:21.984Z,18.20
2019-06-26T07:34:21.956Z,19.30
2019-06-26T07:35:21.928Z,19.30
2019-06-26T07:36:21.904Z,19.70
2019-06-26T07:37:21.874Z,21.30
2019-06-26T07:38:21.849Z,23.20
2019-06-26T07:39:21.821Z,22.80
2019-06-26T07:40:21.793Z,22.90
2019-06-26T07:41:21.765Z,23.10
2019-06-26T07:42:21.738Z,22.80
2019-06-26T07:43:21.718Z,23.00
2019-06-26T07:44:21.685Z,22.40
2019-06-26T07:45:23.974Z,23.10
2019-06-26T07:46:21.632Z,23.70
2019-06-26T07:47:25.014Z,23.90
2019-06-26T07:48:21.596Z,25.60
2019-06-26T07:49:21.546Z,26.20
2019-06-26T07:50:21.519Z,24.90
2019-06-26T07:51:21.493Z,25.50
2019-06-26T07:52:21.492Z,24.20
2019-06-26T07:53:21.456Z,25.10
2019-06-26T07:54:21.411Z,25.60
2019-06-26T07:55:21.384Z,25.40
2019-06-26T07:56:21.359Z,25.70
2019-06-26T07:57:21.333Z,26.20
2019-06-26T07:58:21.303Z,24.70
2019-06-26T07:59:21.301Z,25.10
2019-06-26T08:00:21.290Z,25.70
2019-06-26T08:01:21.219Z,28.90
2019-06-26T08:02:21.191Z,29.80
2019-06-26T08:03:21.169Z,29.70
2019-06-26T08:04:21.138Z,28.40
2019-06-26T08:05:21.112Z,29.70
2019-06-26T08:06:21.089Z,31.40
2019-06-26T08:07:21.071Z,29.40
2019-06-26T08:08:21.132Z,28.80
2019-06-26T08:09:21.001Z,28.40
2019-06-26T08:10:20.990Z,32.40
2019-06-26T08:11:20.972Z,31.00
2019-06-26T08:12:20.922Z,31.80
2019-06-26T08:13:20.896Z,34.60
2019-06-26T08:14:20.886Z,33.60
2019-06-26T08:15:20.836Z,33.50
2019-06-26T08:16:20.817Z,32.20
2019-06-26T08:17:20.783Z,30.30
2019-06-26T08:18:20.803Z,30.80
2019-06-26T08:19:20.734Z,32.20
2019-06-26T08:20:20.703Z,29.60
2019-06-26T08:21:20.674Z,32.10
2019-06-26T08:22:20.651Z,33.60
2019-06-26T08:23:20.623Z,34.40
2019-06-26T08:24:20.594Z,31.40
2019-06-26T08:25:20.567Z,31.40
2019-06-26T08:26:20.540Z,30.60
2019-06-26T08:27:20.508Z,33.00
2019-06-26T08:28:20.482Z,35.00
2019-06-26T08:29:20.454Z,35.20
2019-06-26T08:30:20.426Z,32.60
2019-06-26T08:31:20.405Z,30.50
2019-06-26T08:32:20.375Z,34.90
2019-06-26T08:33:20.346Z,34.30
2019-06-26T08:34:20.323Z,31.80
2019-06-26T08:35:20.293Z,33.70
2019-06-26T08:36:20.263Z,34.10
2019-06-26T08:37:20.240Z,33.50
2019-06-26T08:38:20.222Z,32.20
2019-06-26T08:39:20.201Z,33.10
2019-06-26T08:40:20.156Z,30.70
2019-06-26T08:41:20.125Z,32.30
2019-06-26T08:42:20.123Z,30.90
2019-06-26T08:43:20.077Z,33.50
2019-06-26T08:44:20.059Z,34.10
2019-06-26T08:45:20.027Z,34.20
2019-06-26T08:46:20.007Z,33.30
2019-06-26T08:47:19.964Z,34.90
2019-06-26T08:48:38.449Z,35.20
2019-06-26T08:49:25.564Z,31.30
2019-06-26T08:50:19.893Z,34.30
2019-06-26T08:51:19.854Z,34.40
2019-06-26T08:52:19.823Z,34.50
2019-06-26T08:53:19.804Z,34.00
2019-06-26T08:54:19.773Z,34.60
2019-06-26T08:55:19.748Z,33.10
2019-06-26T08:56:19.716Z,34.70
2019-06-26T08:57:19.686Z,35.80
2019-06-26T08:58:19.663Z,36.00
2019-06-26T08:59:19.637Z,35.40
2019-06-26T09:00:19.611Z,36.20
2019-06-26T09:01:19.582Z,36.70
2019-06-26T09:02:19.570Z,37.20
2019-06-26T09:03:19.527Z,35.90
2019-06-26T09:04:19.497Z,37.90
2019-06-26T09:05:19.468Z,37.50
2019-06-26T09:06:19.443Z,36.80
2019-06-26T09:07:19.435Z,36.80
2019-06-26T09:08:19.452Z,34.60
2019-06-26T09:09:19.365Z,35.10
2019-06-26T09:10:19.335Z,37.00
2019-06-26T09:11:19.310Z,37.00
2019-06-26T09:12:19.304Z,35.00
2019-06-26T09:13:19.258Z,33.70
2019-06-26T09:14:19.263Z,35.20
2019-06-26T09:15:19.203Z,37.10
2019-06-26T09:16:19.170Z,35.80
2019-06-26T09:17:19.143Z,35.10
2019-06-26T09:18:34.270Z,34.40
2019-06-26T09:19:19.094Z,34.40
2019-06-26T09:20:19.065Z,32.30
2019-06-26T09:21:19.038Z,34.40
2019-06-26T09:22:27.638Z,34.30
2019-06-26T09:24:12.630Z,33.00
2019-06-26T09:25:21.711Z,32.30
2019-06-26T09:26:12.546Z,34.10
2019-06-26T09:27:14.886Z,32.10
2019-06-26T09:28:12.516Z,30.90
2019-06-26T09:29:12.468Z,34.70
2019-06-26T09:30:12.443Z,34.50
2019-06-26T09:31:12.415Z,33.60
2019-06-26T09:32:12.385Z,32.70
2019-06-26T09:33:12.362Z,33.50
2019-06-26T09:34:12.333Z,31.80
2019-06-26T09:35:12.314Z,34.20
2019-06-26T09:50:05.954Z,28.60
2019-06-26T09:51:05.895Z,32.50
2019-06-26T09:52:05.904Z,33.60
2019-06-26T09:53:05.837Z,32.90
2019-06-26T09:54:05.802Z,31.30
2019-06-26T09:55:05.770Z,29.10
2019-06-26T09:56:05.743Z,27.80
2019-06-26T09:57:05.716Z,27.50
2019-06-26T09:58:05.694Z,26.80
2019-06-26T09:59:05.656Z,28.10
2019-06-26T10:00:05.626Z,29.80
2019-06-26T10:01:05.594Z,31.00
2019-06-26T10:02:05.567Z,30.40
2019-06-26T10:03:05.540Z,28.50
2019-06-26T10:04:05.515Z,28.30
2019-06-26T10:05:05.487Z,28.10
2019-06-26T10:06:05.461Z,28.70
2019-06-26T10:07:05.431Z,28.50
2019-06-26T10:08:05.403Z,28.40
2019-06-26T10:09:05.372Z,27.90
2019-06-26T10:10:05.350Z,27.00
2019-06-26T10:11:05.321Z,27.50
2019-06-26T10:12:05.291Z,27.40
2019-06-26T10:13:05.262Z,28.40
2019-06-26T10:14:05.234Z,27.90
2019-06-26T10:15:05.211Z,27.20
2019-06-26T10:16:05.193Z,26.30
2019-06-26T10:17:05.158Z,27.00
2019-06-26T10:18:05.130Z,27.30
2019-06-26T10:19:10.283Z,28.30
2019-06-26T10:20:05.076Z,24.80
2019-06-26T10:21:05.045Z,26.80
2019-06-26T10:22:05.018Z,25.90
2019-06-26T10:23:04.990Z,26.40
2019-06-26T10:24:04.973Z,26.50
2019-06-26T10:25:04.940Z,25.50
2019-06-26T10:26:04.908Z,26.10
2019-06-26T10:27:04.882Z,24.50
2019-06-26T10:28:04.865Z,23.50
2019-06-26T10:29:04.836Z,25.20
2019-06-26T10:30:04.810Z,23.90
2019-06-26T10:31:04.777Z,26.50
2019-06-26T10:32:04.751Z,25.20
2019-06-26T10:33:04.721Z,25.40
2019-06-26T10:34:04.692Z,24.10
2019-06-26T10:35:04.719Z,25.60
2019-06-26T10:36:04.645Z,24.20
2019-06-26T10:37:04.688Z,21.10
2019-06-26T10:38:04.593Z,20.70
2019-06-26T10:39:04.561Z,23.80
2019-06-26T10:40:04.541Z,22.60
2019-06-26T10:41:04.505Z,23.40
2019-06-26T10:42:04.489Z,24.50
2019-06-26T10:43:04.458Z,22.10
2019-06-26T10:44:04.427Z,21.70
2019-06-26T10:45:04.401Z,21.10
2019-06-26T10:46:04.372Z,21.40
2019-06-26T10:47:04.347Z,20.20
2019-06-26T10:48:04.374Z,19.00
2019-06-26T10:49:04.299Z,18.20
2019-06-26T10:50:04.274Z,17.50
2019-06-26T10:51:04.242Z,19.10
2019-06-26T10:52:04.219Z,18.60
2019-06-26T10:53:04.194Z,17.60
2019-06-26T10:54:04.164Z,17.10
2019-06-26T10:55:04.147Z,16.60
2019-06-26T10:56:04.112Z,16.40
2019-06-26T10:57:04.085Z,15.50
2019-06-26T10:58:04.055Z,16.20
2019-06-26T10:59:04.028Z,15.60
2019-06-26T11:00:04.003Z,14.90
2019-06-26T11:01:04.000Z,15.30
2019-06-26T11:02:03.953Z,15.40
2019-06-26T11:03:03.932Z,15.70
2019-06-26T11:04:03.896Z,14.40
2019-06-26T11:05:03.872Z,14.30
2019-06-26T11:06:03.844Z,13.90
2019-06-26T11:07:03.818Z,14.20
2019-06-26T11:08:03.793Z,15.10
2019-06-26T11:09:03.825Z,14.70
2019-06-26T11:10:03.744Z,17.60
2019-06-26T11:11:03.718Z,18.80
2019-06-26T11:12:03.687Z,17.60
2019-06-26T11:13:03.661Z,16.20
2019-06-26T11:14:03.639Z,16.40
2019-06-26T11:15:03.614Z,15.70
2019-06-26T11:16:03.588Z,14.40
2019-06-26T11:17:03.559Z,14.50
2019-06-26T11:18:03.526Z,13.80
2019-06-26T11:19:03.499Z,13.20
2019-06-26T11:20:03.479Z,13.60
2019-06-26T11:21:03.471Z,13.80
2019-06-26T11:22:03.550Z,15.00
2019-06-26T11:23:03.429Z,14.60
2019-06-26T11:24:03.369Z,14.20
2019-06-26T11:25:03.345Z,14.00
2019-06-26T11:26:03.326Z,13.70
2019-06-26T11:27:03.447Z,13.50
2019-06-26T11:28:03.267Z,13.30
2019-06-26T11:29:03.245Z,12.40
2019-06-26T11:30:03.584Z,14.00
2019-06-26T11:31:03.186Z,14.60
2019-06-26T11:32:03.159Z,15.40
2019-06-26T11:33:03.137Z,14.30
2019-06-26T11:34:03.117Z,13.40
2019-06-26T11:35:03.093Z,14.50
2019-06-26T11:36:03.067Z,13.00
2019-06-26T11:37:04.540Z,12.50
2019-06-26T11:38:02.998Z,12.70
2019-06-26T11:39:02.973Z,13.30
2019-06-26T11:40:02.950Z,13.40
2019-06-26T11:41:02.924Z,11.90
2019-06-26T11:42:02.900Z,12.00
2019-06-26T11:43:02.943Z,11.60
2019-06-26T11:44:11.527Z,11.70
2019-06-26T11:46:07.565Z,12.10
2019-06-26T11:47:07.473Z,11.30
2019-06-26T11:48:07.494Z,11.30
2019-06-26T11:49:07.414Z,10.90
2019-06-26T11:50:07.387Z,10.60
2019-06-26T11:51:07.363Z,11.40
2019-06-26T11:52:07.442Z,11.10
2019-06-26T11:53:07.309Z,10.60
2019-06-26T11:54:07.338Z,10.60
2019-06-26T11:55:07.260Z,10.60
2019-06-26T11:56:07.234Z,10.30
2019-06-26T11:57:07.214Z,10.50
2019-06-26T11:58:07.210Z,9.80
2019-06-26T11:59:07.158Z,9.60
2019-06-26T12:00:07.128Z,9.30
2019-06-26T12:01:07.108Z,10.40
2019-06-26T12:02:07.071Z,10.30
2019-06-26T12:03:07.045Z,10.10
2019-06-26T12:04:07.020Z,9.60
2019-06-26T12:05:06.996Z,9.60
2019-06-26T12:06:17.732Z,9.20
2019-06-26T12:07:06.952Z,9.20
2019-06-26T12:08:06.917Z,9.30
2019-06-26T12:09:06.889Z,8.90
2019-06-26T12:10:06.944Z,8.70
2019-06-26T12:11:06.834Z,9.00
2019-06-26T12:12:06.810Z,8.10
2019-06-26T12:13:06.821Z,8.30
2019-06-26T12:14:06.762Z,8.50
2019-06-26T12:15:06.772Z,8.90
2019-06-26T12:16:06.708Z,8.50
2019-06-26T12:17:06.680Z,8.80
2019-06-26T12:18:06.657Z,8.70
2019-06-26T12:19:06.641Z,8.20
2019-06-26T12:20:17.851Z,8.40
2019-06-26T12:21:06.574Z,8.40
2019-06-26T12:22:06.546Z,8.00
2019-06-26T12:23:06.526Z,7.70
2019-06-26T12:24:06.533Z,7.70
2019-06-26T12:25:06.486Z,7.70
2019-06-26T12:26:06.563Z,8.10
2019-06-26T12:27:06.451Z,8.00
2019-06-26T12:28:06.393Z,8.50
2019-06-26T12:29:06.391Z,8.60
2019-06-26T12:30:06.345Z,8.10
2019-06-26T12:31:06.313Z,8.40
2019-06-26T12:32:06.359Z,7.80
2019-06-26T12:33:06.263Z,8.00
2019-06-26T12:34:06.240Z,7.90
2019-06-26T12:35:06.215Z,7.60
2019-06-26T12:36:06.197Z,7.70
2019-06-26T12:37:06.159Z,7.60
2019-06-26T12:38:06.139Z,8.20
2019-06-26T12:39:06.104Z,8.10
2019-06-26T12:40:06.082Z,7.70
2019-06-26T12:41:06.062Z,7.40
2019-06-26T12:42:06.032Z,7.60
2019-06-26T12:43:06.029Z,7.30
2019-06-26T12:44:06.127Z,7.70
2019-06-26T12:45:05.952Z,8.20
2019-06-26T12:46:05.962Z,7.80
2019-06-26T12:47:05.993Z,7.90
2019-06-26T12:48:05.878Z,8.20
2019-06-26T12:49:05.851Z,8.50
2019-06-26T12:50:05.822Z,8.50
2019-06-26T12:51:05.795Z,8.30
2019-06-26T12:52:05.767Z,7.90
2019-06-26T12:53:05.742Z,8.40
2019-06-26T12:54:05.723Z,9.20
2019-06-26T12:55:05.710Z,9.40
2019-06-26T12:56:05.679Z,8.50
2019-06-26T12:57:05.635Z,8.80
2019-06-26T12:58:13.143Z,9.40
2019-06-26T12:59:05.584Z,9.50
2019-06-26T13:00:05.560Z,11.00
2019-06-26T13:01:05.537Z,10.40
2019-06-26T13:02:05.512Z,10.30
2019-06-26T13:03:05.479Z,9.90
2019-06-26T13:04:05.457Z,9.10
2019-06-26T13:05:05.435Z,9.50
2019-06-26T13:06:05.406Z,10.50
2019-06-26T13:07:05.380Z,10.40
2019-06-26T13:08:05.358Z,11.30
2019-06-26T13:09:05.328Z,11.00
2019-06-26T13:10:07.518Z,10.50
2019-06-26T13:11:05.272Z,10.60
2019-06-26T13:12:05.248Z,11.00
2019-06-26T13:13:05.222Z,10.70
2019-06-26T13:14:05.199Z,10.60
2019-06-26T13:15:05.232Z,11.10
2019-06-26T13:16:05.147Z,10.50
2019-06-26T13:17:05.118Z,10.70
2019-06-26T13:18:05.094Z,11.10
2019-06-26T13:19:05.087Z,11.90
2019-06-26T13:20:05.061Z,11.40
2019-06-26T13:21:05.432Z,11.00
2019-06-26T13:22:04.986Z,11.00
2019-06-26T13:23:04.991Z,10.80
2019-06-26T13:24:04.938Z,11.70
2019-06-26T13:25:04.913Z,12.20
2019-06-26T13:26:04.923Z,12.00
2019-06-26T13:27:04.866Z,11.50
2019-06-26T13:28:04.839Z,11.50
2019-06-26T13:29:04.807Z,10.60